Time;durP1;ratioP1;P1;durP2;ratioP2;P2;SDS_P1;SDS_P2;PMS_P1;PMS_P2;Temp;Humidity;BMP_temperature;BMP_pressure;BME280_temperature;BME280_humidity;BME280_pressure;Samples;Min_cycle;Max_cycle;Signal;HPM_P1;HPM_P2
2023/09/04 00:01:04;;;;;;;4.65;4.00;;;;;;;18.00;100.00;101450.44;4935727;29;20458;-96
2023/09/04 00:03:29;;;;;;;4.88;4.07;;;;;;;17.89;100.00;101456.41;4935424;29;20027;-96
2023/09/04 00:05:55;;;;;;;4.55;3.58;;;;;;;17.88;100.00;101452.16;4934090;29;20027;-95
2023/09/04 00:08:21;;;;;;;8.10;4.40;;;;;;;17.91;100.00;101451.91;4934028;29;20127;-96
2023/09/04 00:10:47;;;;;;;8.65;4.68;;;;;;;18.05;100.00;101439.66;4935012;29;20063;-96
2023/09/04 00:13:13;;;;;;;7.50;4.50;;;;;;;17.92;100.00;101440.56;4935552;29;20051;-96
2023/09/04 00:15:38;;;;;;;7.53;4.57;;;;;;;18.04;100.00;101435.34;4966473;28;20032;-96
2023/09/04 00:18:05;;;;;;;7.13;4.40;;;;;;;18.04;100.00;101438.81;4934087;29;20027;-96
2023/09/04 00:20:30;;;;;;;6.88;4.97;;;;;;;18.13;100.00;101439.91;4937568;29;20075;-96
2023/09/04 00:22:56;;;;;;;7.05;5.10;;;;;;;18.01;100.00;101438.19;4953169;28;20110;-96
2023/09/04 00:25:22;;;;;;;6.95;5.00;;;;;;;17.98;100.00;101449.72;4952843;28;20486;-95
2023/09/04 00:27:47;;;;;;;7.32;5.07;;;;;;;17.93;100.00;101439.59;4953090;28;20113;-96
2023/09/04 00:30:13;;;;;;;5.68;4.80;;;;;;;17.86;100.00;101435.75;4954115;28;20027;-95
2023/09/04 00:32:38;;;;;;;5.40;4.55;;;;;;;17.75;100.00;101433.03;4952811;28;20437;-96
2023/09/04 00:35:04;;;;;;;7.72;5.28;;;;;;;17.77;100.00;101426.75;4968753;28;20019;-95
2023/09/04 00:37:30;;;;;;;5.75;4.50;;;;;;;17.74;100.00;101423.56;4954114;28;20474;-95
2023/09/04 00:39:55;;;;;;;6.90;6.18;;;;;;;17.65;100.00;101425.03;4953874;28;20038;-96
2023/09/04 00:42:20;;;;;;;6.40;5.70;;;;;;;17.68;100.00;101427.44;4952750;29;20031;-96
2023/09/04 00:44:50;;;;;;;5.60;4.65;;;;;;;17.62;100.00;101433.09;4968992;28;20033;-96
2023/09/04 00:47:22;;;;;;;5.97;4.93;;;;;;;17.61;100.00;101430.63;4952912;29;20056;-96
2023/09/04 00:49:48;;;;;;;6.78;4.85;;;;;;;17.53;100.00;101429.38;4953054;29;20110;-96
2023/09/04 00:52:13;;;;;;;6.00;5.28;;;;;;;17.49;100.00;101427.09;4952924;29;20027;-96
2023/09/04 00:54:42;;;;;;;6.55;5.25;;;;;;;17.59;100.00;101427.28;4944242;29;20482;-96
2023/09/04 00:57:09;;;;;;;7.90;4.70;;;;;;;17.58;100.00;101420.38;4933879;29;20123;-96
2023/09/04 00:59:35;;;;;;;12.18;5.97;;;;;;;17.62;100.00;101421.81;4933945;29;20028;-96
2023/09/04 01:02:01;;;;;;;10.52;6.93;;;;;;;17.51;100.00;101420.81;4933541;29;20020;-96
2023/09/04 01:04:26;;;;;;;7.90;5.70;;;;;;;17.44;100.00;101408.31;4933580;29;20118;-96
2023/09/04 01:06:53;;;;;;;6.88;6.18;;;;;;;17.34;100.00;101418.56;4933633;29;20430;-96
2023/09/04 01:09:20;;;;;;;9.23;6.68;;;;;;;17.36;100.00;101419.28;4941661;29;20500;-96
2023/09/04 01:12:15;;;;;;;7.57;5.90;;;;;;;17.34;100.00;101408.13;4952238;28;20077;-96
2023/09/04 01:14:45;;;;;;;6.45;5.78;;;;;;;17.28;100.00;101414.59;4943570;29;20529;-96
2023/09/04 01:17:12;;;;;;;7.00;5.65;;;;;;;17.28;100.00;101413.75;4952816;29;20027;-95
2023/09/04 01:19:38;;;;;;;9.52;6.85;;;;;;;17.35;100.00;101404.56;4952806;29;20027;-96
2023/09/04 01:22:06;;;;;;;12.02;7.63;;;;;;;17.38;100.00;101399.13;4934987;28;20063;-95
2023/09/04 01:24:31;;;;;;;11.23;8.10;;;;;;;17.32;100.00;101391.75;4935884;29;20040;-95
2023/09/04 01:27:10;;;;;;;8.05;6.63;;;;;;;17.26;100.00;101400.00;4969162;28;20034;-96
2023/09/04 01:29:56;;;;;;;7.72;6.78;;;;;;;17.27;100.00;101399.88;4938184;29;20050;-96
2023/09/04 01:32:28;;;;;;;7.88;6.65;;;;;;;17.17;100.00;101403.22;4969121;28;20554;-96
2023/09/04 01:34:55;;;;;;;8.50;7.13;;;;;;;17.22;100.00;101393.34;4970174;28;20140;-96
2023/09/04 01:37:22;;;;;;;8.43;7.53;;;;;;;17.21;100.00;101394.25;4955655;28;20071;-95
2023/09/04 01:39:49;;;;;;;10.93;8.65;;;;;;;17.15;100.00;101390.31;4955947;29;20023;-95
2023/09/04 01:42:14;;;;;;;14.65;9.85;;;;;;;17.23;100.00;101389.78;4956882;28;20496;-96
2023/09/04 01:44:41;;;;;;;11.32;9.13;;;;;;;17.35;100.00;101380.25;4955477;28;20067;-95
2023/09/04 01:47:07;;;;;;;11.57;8.60;;;;;;;17.26;100.00;101376.50;4955607;29;20118;-95
2023/09/04 01:49:33;;;;;;;10.88;8.73;;;;;;;17.29;100.00;101378.94;4940902;28;20478;-95
2023/09/04 01:52:00;;;;;;;9.35;8.32;;;;;;;17.22;100.00;101381.13;4937491;29;20038;-95
2023/09/04 01:54:25;;;;;;;10.85;9.20;;;;;;;17.22;100.00;101373.28;4968134;28;20036;-95
2023/09/04 01:56:51;;;;;;;12.85;10.65;;;;;;;17.25;100.00;101364.41;4936439;29;20110;-95
2023/09/04 01:59:16;;;;;;;11.85;9.70;;;;;;;17.47;100.00;101367.16;4937581;29;20035;-95
2023/09/04 02:01:42;;;;;;;9.18;8.27;;;;;;;17.29;100.00;101368.50;4937112;29;20031;-96
2023/09/04 02:04:07;;;;;;;10.32;8.65;;;;;;;17.35;100.00;101357.59;4949198;29;20044;-95
2023/09/04 02:06:32;;;;;;;11.63;8.82;;;;;;;17.26;100.00;101353.84;4955250;28;20489;-96
2023/09/04 02:08:58;;;;;;;9.93;8.18;;;;;;;17.18;100.00;101350.97;4955765;28;20031;-96
2023/09/04 02:11:23;;;;;;;11.68;10.15;;;;;;;17.33;100.00;101346.44;4955818;29;20031;-96
2023/09/04 02:13:49;;;;;;;16.70;11.70;;;;;;;17.33;100.00;101352.47;4955657;28;20393;-96
2023/09/04 02:16:14;;;;;;;10.30;8.35;;;;;;;17.28;100.00;101345.94;4955649;28;20122;-96
2023/09/04 02:18:40;;;;;;;11.32;9.10;;;;;;;17.30;100.00;101344.03;4948301;28;20382;-96
2023/09/04 02:21:06;;;;;;;17.13;9.38;;;;;;;17.29;100.00;101342.41;4968885;28;20028;-96
2023/09/04 02:23:32;;;;;;;11.25;9.02;;;;;;;17.15;100.00;101339.94;4968700;28;20490;-96
2023/09/04 02:25:57;;;;;;;14.95;12.52;;;;;;;17.21;100.00;101335.09;4936655;29;20031;-96
2023/09/04 02:28:24;;;;;;;14.73;11.32;;;;;;;17.34;100.00;101340.28;4969350;28;20035;-96
2023/09/04 02:30:49;;;;;;;11.43;9.50;;;;;;;17.23;100.00;101332.38;4968036;28;20074;-96
2023/09/04 02:33:15;;;;;;;13.15;10.15;;;;;;;17.17;100.00;101338.00;4936179;29;20063;-96
2023/09/04 02:35:40;;;;;;;12.07;10.60;;;;;;;17.30;100.00;101333.59;4935512;29;20027;-95
2023/09/04 02:38:06;;;;;;;15.07;10.25;;;;;;;17.20;100.00;101333.44;4936919;29;20115;-96
2023/09/04 02:40:31;;;;;;;14.68;10.60;;;;;;;17.31;100.00;101330.03;4968742;28;20506;-96
2023/09/04 02:42:57;;;;;;;17.17;11.65;;;;;;;17.29;100.00;101331.97;4968613;28;20038;-96
2023/09/04 02:45:22;;;;;;;13.32;10.45;;;;;;;17.27;100.00;101323.41;4937617;29;20027;-96
2023/09/04 02:47:48;;;;;;;16.90;12.98;;;;;;;17.40;100.00;101321.56;4970463;28;20034;-95
2023/09/04 02:50:13;;;;;;;14.18;11.68;;;;;;;17.32;100.00;101316.06;4967440;28;20024;-95
2023/09/04 02:52:39;;;;;;;13.68;10.93;;;;;;;17.46;100.00;101321.13;4937783;29;20133;-96
2023/09/04 02:55:06;;;;;;;16.40;12.52;;;;;;;17.41;100.00;101310.19;4936388;29;20031;-96
2023/09/04 02:57:32;;;;;;;19.92;14.05;;;;;;;17.47;100.00;101311.53;4937199;29;20031;-96
2023/09/04 02:59:58;;;;;;;16.25;14.05;;;;;;;17.52;100.00;101305.00;4939606;29;20418;-96
2023/09/04 03:02:24;;;;;;;22.02;13.18;;;;;;;17.60;100.00;101304.44;4948356;28;20032;-96
2023/09/04 03:04:54;;;;;;;23.00;16.73;;;;;;;17.61;100.00;101321.78;4936077;29;20122;-96
2023/09/04 03:07:19;;;;;;;19.15;15.30;;;;;;;17.71;100.00;101311.50;4936488;29;20034;-96
2023/09/04 03:09:45;;;;;;;18.95;14.85;;;;;;;17.66;100.00;101305.78;4936101;29;20479;-96
2023/09/04 03:12:10;;;;;;;20.65;16.25;;;;;;;17.70;100.00;101309.81;4936112;29;20089;-96
2023/09/04 03:14:35;;;;;;;28.08;14.43;;;;;;;17.64;100.00;101310.28;4941024;29;20050;-96
2023/09/04 03:17:01;;;;;;;22.10;15.07;;;;;;;17.61;100.00;101300.09;4946155;29;20063;-95
2023/09/04 03:19:27;;;;;;;20.48;17.17;;;;;;;17.66;100.00;101303.19;4935780;29;20031;-96
2023/09/04 03:21:53;;;;;;;20.50;15.73;;;;;;;17.63;100.00;101298.16;4967841;28;20031;-96
2023/09/04 03:24:20;;;;;;;27.85;16.65;;;;;;;17.63;100.00;101300.78;4967285;28;20050;-96
2023/09/04 03:26:45;;;;;;;25.45;18.27;;;;;;;17.68;100.00;101301.28;4967879;28;20028;-96
2023/09/04 03:29:11;;;;;;;23.35;17.83;;;;;;;17.68;100.00;101301.28;4937031;29;20027;-96
2023/09/04 03:31:36;;;;;;;21.52;17.00;;;;;;;17.63;100.00;101299.03;4966925;28;20030;-96
2023/09/04 03:34:01;;;;;;;22.65;16.60;;;;;;;17.68;100.00;101304.75;4935232;29;20386;-96
2023/09/04 03:36:27;;;;;;;21.58;15.52;;;;;;;17.54;100.00;101299.69;4967734;28;20051;-96
2023/09/04 03:38:52;;;;;;;21.80;16.15;;;;;;;17.51;100.00;101308.56;4935701;28;20055;-96
2023/09/04 03:41:17;;;;;;;22.38;15.52;;;;;;;17.54;100.00;101310.97;4968020;28;20060;-96
2023/09/04 03:43:43;;;;;;;26.65;16.52;;;;;;;17.36;100.00;101311.44;4936007;29;20251;-96
2023/09/04 03:46:13;;;;;;;17.83;14.68;;;;;;;17.32;100.00;101316.06;4936367;29;20039;-96
2023/09/04 03:48:38;;;;;;;22.17;16.17;;;;;;;17.36;100.00;101317.50;4967453;28;20028;-96
2023/09/04 03:51:03;;;;;;;22.00;15.23;;;;;;;17.25;100.00;101315.66;4946290;29;20031;-96
2023/09/04 03:53:29;;;;;;;26.77;16.88;;;;;;;17.20;100.00;101316.94;4954766;29;20497;-96
2023/09/04 03:56:04;;;;;;;20.20;16.35;;;;;;;17.16;100.00;101308.50;4954442;29;20035;-96
2023/09/04 03:58:31;;;;;;;18.80;14.98;;;;;;;17.04;100.00;101299.75;4954335;28;20130;-96
2023/09/04 04:00:57;;;;;;;21.60;15.35;;;;;;;17.02;100.00;101298.22;4954385;28;20074;-95
2023/09/04 04:03:23;;;;;;;18.92;14.10;;;;;;;16.98;100.00;101287.16;4955382;28;20166;-96
2023/09/04 04:05:48;;;;;;;20.08;15.10;;;;;;;16.97;100.00;101287.28;4943364;29;20486;-96
2023/09/04 04:08:13;;;;;;;19.30;14.73;;;;;;;16.98;100.00;101286.34;4935247;29;20087;-96
2023/09/04 04:10:39;;;;;;;20.38;15.55;;;;;;;16.95;100.00;101292.63;4967205;28;20399;-96
2023/09/04 04:13:05;;;;;;;22.05;16.83;;;;;;;16.97;100.00;101285.53;4946685;29;20035;-96
2023/09/04 04:15:30;;;;;;;21.30;15.95;;;;;;;16.98;100.00;101287.16;4954641;29;20486;-96
2023/09/04 04:17:55;;;;;;;19.60;15.43;;;;;;;16.95;100.00;101279.56;4955613;29;20027;-95
2023/09/04 04:20:22;;;;;;;22.73;16.13;;;;;;;16.96;100.00;101283.84;4954253;29;20063;-96
2023/09/04 04:22:47;;;;;;;28.65;18.45;;;;;;;16.92;100.00;101282.38;4954271;28;20023;-96
2023/09/04 04:25:13;;;;;;;24.83;17.70;;;;;;;17.06;100.00;101284.00;4949996;28;20091;-96
2023/09/04 04:27:39;;;;;;;22.83;17.05;;;;;;;16.99;100.00;101283.59;4966775;28;20023;-96
2023/09/04 04:30:05;;;;;;;22.33;16.85;;;;;;;16.95;100.00;101287.41;4966808;28;20027;-96
2023/09/04 04:32:30;;;;;;;20.45;14.65;;;;;;;16.83;100.00;101275.22;4966835;28;20020;-96
2023/09/04 04:34:55;;;;;;;25.38;18.05;;;;;;;16.87;100.00;101274.03;4966577;28;20028;-94
2023/09/04 04:37:21;;;;;;;27.67;17.65;;;;;;;16.95;100.00;101281.31;4966784;28;20377;-96
2023/09/04 04:39:46;;;;;;;22.50;18.13;;;;;;;16.92;100.00;101271.13;4935703;29;20024;-95
2023/09/04 04:42:12;;;;;;;20.45;16.08;;;;;;;16.85;100.00;101268.97;4966291;28;20031;-95
2023/09/04 04:44:37;;;;;;;24.67;17.88;;;;;;;16.91;100.00;101262.47;4966809;28;20058;-95
2023/09/04 04:47:02;;;;;;;27.92;19.63;;;;;;;16.88;100.00;101260.91;4967359;28;20024;-95
2023/09/04 04:49:28;;;;;;;25.52;19.38;;;;;;;17.02;100.00;101265.16;4935632;29;20114;-96
2023/09/04 04:51:54;;;;;;;26.58;19.08;;;;;;;16.79;100.00;101281.59;4946216;29;20039;-96
2023/09/04 04:54:20;;;;;;;24.77;18.15;;;;;;;16.79;100.00;101281.59;4953461;29;20031;-96
2023/09/04 04:56:49;;;;;;;22.70;16.70;;;;;;;16.75;100.00;101286.13;4954642;28;20027;-96
2023/09/04 04:59:15;;;;;;;25.73;18.35;;;;;;;16.70;100.00;101296.06;4956686;28;20445;-96
2023/09/04 05:01:41;;;;;;;22.00;16.25;;;;;;;16.62;100.00;101288.78;4954707;28;20028;-96
2023/09/04 05:04:06;;;;;;;23.20;16.58;;;;;;;16.59;100.00;101293.38;4970543;28;20481;-96
2023/09/04 05:06:32;;;;;;;24.35;17.02;;;;;;;16.61;100.00;101294.09;4938698;29;20028;-96
2023/09/04 05:08:57;;;;;;;25.23;18.27;;;;;;;16.55;100.00;101289.31;4971013;28;20032;-96
2023/09/04 05:11:22;;;;;;;22.17;18.02;;;;;;;16.67;100.00;101291.88;4970992;28;20031;-96
2023/09/04 05:13:48;;;;;;;24.38;17.23;;;;;;;16.57;100.00;101296.06;4938862;29;20024;-96
2023/09/04 05:16:13;;;;;;;25.58;18.10;;;;;;;16.58;100.00;101300.38;4941127;29;20138;-96
2023/09/04 05:18:39;;;;;;;24.55;18.35;;;;;;;16.53;100.00;101299.81;4943030;29;20036;-96
2023/09/04 05:21:06;;;;;;;26.98;18.73;;;;;;;16.60;100.00;101297.63;4974697;28;20036;-96
2023/09/04 05:23:31;;;;;;;20.65;15.88;;;;;;;16.50;100.00;101294.84;4941100;29;20117;-96
2023/09/04 05:25:57;;;;;;;24.48;18.23;;;;;;;16.52;100.00;101292.97;4952877;29;20057;-96
2023/09/04 05:28:22;;;;;;;28.83;19.67;;;;;;;16.61;100.00;101283.69;4963310;29;20023;-96
2023/09/04 05:30:48;;;;;;;23.13;16.98;;;;;;;16.52;100.00;101295.56;4961262;29;20461;-96
2023/09/04 05:33:13;;;;;;;30.88;20.00;;;;;;;16.50;100.00;101292.22;4963558;28;20027;-96
2023/09/04 05:35:39;;;;;;;20.63;15.80;;;;;;;16.43;100.00;101290.97;4962328;28;20032;-96
2023/09/04 05:38:04;;;;;;;28.33;16.95;;;;;;;16.34;100.00;101281.19;4959397;28;20031;-96
2023/09/04 05:40:30;;;;;;;21.73;16.17;;;;;;;16.34;100.00;101278.56;4951687;29;20501;-96
2023/09/04 05:42:57;;;;;;;27.75;19.27;;;;;;;16.47;100.00;101269.00;4954760;28;20432;-95
2023/09/04 05:45:22;;;;;;;25.33;18.70;;;;;;;16.40;100.00;101276.38;4953185;29;20130;-96
2023/09/04 05:47:48;;;;;;;27.92;19.42;;;;;;;16.68;100.00;101270.13;4955865;28;20545;-95
2023/09/04 05:50:14;;;;;;;27.40;19.88;;;;;;;16.52;100.00;101272.09;4956077;28;20023;-96
2023/09/04 05:52:39;;;;;;;29.13;19.98;;;;;;;16.59;100.00;101273.34;4951427;29;20051;-95
2023/09/04 05:55:06;;;;;;;32.85;21.30;;;;;;;16.53;100.00;101278.16;4954159;28;20027;-96
2023/09/04 05:57:31;;;;;;;30.02;20.83;;;;;;;16.53;100.00;101260.72;4945831;28;20027;-92
2023/09/04 05:59:57;;;;;;;28.23;19.13;;;;;;;16.54;100.00;101257.19;4949005;28;20507;-93
2023/09/04 06:02:22;;;;;;;37.05;21.98;;;;;;;16.59;100.00;101256.88;4948710;28;20050;-92
2023/09/04 06:04:48;;;;;;;33.97;21.98;;;;;;;16.69;100.00;101248.31;4947226;28;20438;-93
2023/09/04 06:07:14;;;;;;;32.97;22.20;;;;;;;16.61;100.00;101248.03;4946349;28;20055;-94
2023/09/04 06:09:40;;;;;;;32.85;22.33;;;;;;;16.67;100.00;101254.56;4946632;28;20031;-96
2023/09/04 06:12:08;;;;;;;32.25;21.80;;;;;;;16.66;100.00;101245.94;4945107;29;20023;-95
2023/09/04 06:14:34;;;;;;;38.50;23.70;;;;;;;16.72;100.00;101256.84;4948987;29;20027;-94
2023/09/04 06:16:59;;;;;;;37.00;23.02;;;;;;;16.68;100.00;101264.06;4950241;28;20023;-94
2023/09/04 06:19:24;;;;;;;32.05;22.08;;;;;;;16.71;100.00;101263.03;4950339;28;20119;-96
2023/09/04 06:21:50;;;;;;;27.92;20.05;;;;;;;16.70;100.00;101251.75;4946993;29;20059;-96
2023/09/04 06:24:15;;;;;;;30.92;21.13;;;;;;;16.75;100.00;101259.25;4955523;28;20031;-95
2023/09/04 06:26:41;;;;;;;28.75;21.58;;;;;;;16.91;100.00;101270.28;4952808;29;20401;-96
2023/09/04 06:29:06;;;;;;;26.58;19.13;;;;;;;16.87;100.00;101255.78;4947299;29;20507;-95
2023/09/04 06:31:31;;;;;;;29.30;20.45;;;;;;;16.86;100.00;101267.19;4949864;29;20027;-96
2023/09/04 06:33:57;;;;;;;28.67;19.88;;;;;;;16.87;100.00;101267.09;4953849;28;20050;-95
2023/09/04 06:36:22;;;;;;;29.65;21.60;;;;;;;16.93;100.00;101273.63;4952957;29;20020;-96
2023/09/04 06:38:48;;;;;;;29.77;20.75;;;;;;;16.98;100.00;101276.75;4952276;28;20429;-96
2023/09/04 06:41:13;;;;;;;30.05;20.90;;;;;;;17.15;100.00;101277.31;4947858;28;20028;-96
2023/09/04 06:43:39;;;;;;;30.05;21.73;;;;;;;17.13;100.00;101274.81;4951479;28;20024;-96
2023/09/04 06:46:04;;;;;;;29.65;18.73;;;;;;;17.21;100.00;101276.88;4953613;28;20030;-96
2023/09/04 06:48:30;;;;;;;23.38;17.00;;;;;;;17.29;100.00;101287.59;4952527;29;20019;-95
2023/09/04 06:50:55;;;;;;;29.83;20.10;;;;;;;17.42;100.00;101284.94;4953499;28;20066;-95
2023/09/04 06:53:20;;;;;;;29.17;19.08;;;;;;;17.49;100.00;101289.59;4951974;28;20489;-96
2023/09/04 06:55:49;;;;;;;28.05;19.70;;;;;;;17.60;100.00;101288.78;4953260;28;20136;-96
2023/09/04 06:58:15;;;;;;;26.38;19.38;;;;;;;17.72;100.00;101289.66;4951348;28;20035;-95
2023/09/04 07:00:41;;;;;;;30.48;20.45;;;;;;;17.84;100.00;101288.78;4952473;28;20378;-95
2023/09/04 07:03:06;;;;;;;31.30;22.33;;;;;;;17.98;100.00;101292.16;4952295;28;20050;-95
2023/09/04 07:05:32;;;;;;;30.75;21.48;;;;;;;18.07;100.00;101291.44;4951553;28;20081;-96
2023/09/04 07:07:57;;;;;;;33.35;22.70;;;;;;;18.13;100.00;101296.22;4952295;28;20027;-96
2023/09/04 07:10:23;;;;;;;32.05;21.80;;;;;;;18.22;100.00;101285.06;4950646;29;20023;-96
2023/09/04 07:12:50;;;;;;;30.70;21.55;;;;;;;18.32;100.00;101285.19;4952161;29;20597;-95
2023/09/04 07:15:16;;;;;;;25.85;18.52;;;;;;;18.40;100.00;101286.25;4951841;28;20501;-96
2023/09/04 07:17:41;;;;;;;36.67;23.85;;;;;;;18.58;100.00;101291.00;4951055;29;20034;-96
2023/09/04 07:20:07;;;;;;;32.05;22.02;;;;;;;18.63;100.00;101294.13;4951702;28;20489;-96
2023/09/04 07:22:33;;;;;;;32.63;21.58;;;;;;;18.72;100.00;101288.16;4947040;29;20026;-96
2023/09/04 07:24:58;;;;;;;32.42;22.30;;;;;;;18.80;100.00;101293.66;4947520;28;20039;-95
2023/09/04 07:27:25;;;;;;;31.65;21.42;;;;;;;18.88;100.00;101289.63;4953056;28;20029;-96
2023/09/04 07:29:50;;;;;;;33.65;23.25;;;;;;;18.92;100.00;101293.63;4951120;29;20117;-95
2023/09/04 07:32:16;;;;;;;27.65;19.55;;;;;;;19.01;100.00;101283.28;4952096;28;20151;-95
2023/09/04 07:34:41;;;;;;;33.25;22.25;;;;;;;19.10;100.00;101284.34;4952251;28;20393;-95
2023/09/04 07:37:07;;;;;;;33.28;21.38;;;;;;;19.22;100.00;101280.75;4951398;28;20020;-95
2023/09/04 07:39:32;;;;;;;29.83;20.65;;;;;;;19.70;100.00;101276.88;4950854;28;20408;-95
2023/09/04 07:41:57;;;;;;;29.42;20.55;;;;;;;21.31;100.00;101268.28;4952869;28;20031;-95
2023/09/04 07:44:23;;;;;;;27.67;19.15;;;;;;;21.48;100.00;101279.06;4951281;28;20052;-95
2023/09/04 07:46:49;;;;;;;27.00;18.85;;;;;;;20.81;100.00;101281.47;4952435;28;20035;-95
2023/09/04 07:49:14;;;;;;;25.70;17.30;;;;;;;21.29;100.00;101278.09;4951249;28;20056;-96
2023/09/04 07:51:40;;;;;;;24.55;17.70;;;;;;;21.16;100.00;101277.50;4950810;28;20187;-96
2023/09/04 07:54:05;;;;;;;25.83;19.00;;;;;;;21.60;100.00;101275.34;4950946;29;20403;-96
2023/09/04 07:56:31;;;;;;;26.40;18.02;;;;;;;22.51;91.82;101278.34;4950251;28;20397;-96
2023/09/04 07:58:56;;;;;;;24.17;17.05;;;;;;;22.60;89.81;101276.63;4950174;28;20057;-95
2023/09/04 08:01:22;;;;;;;25.05;16.52;;;;;;;22.28;92.92;101283.13;4952074;28;20167;-96
2023/09/04 08:03:47;;;;;;;24.20;17.00;;;;;;;22.53;89.00;101281.66;4950807;29;20051;-96
2023/09/04 08:06:12;;;;;;;21.77;15.27;;;;;;;24.18;76.61;101289.25;4949846;28;20042;-96
2023/09/04 08:08:38;;;;;;;19.20;13.65;;;;;;;25.74;66.98;101283.41;4950988;29;20049;-96
2023/09/04 08:11:03;;;;;;;18.55;13.68;;;;;;;26.75;61.69;101283.81;4951148;29;20027;-96
2023/09/04 08:13:29;;;;;;;17.48;11.95;;;;;;;27.44;57.41;101287.34;4944444;29;20386;-95
2023/09/04 08:15:54;;;;;;;17.52;11.85;;;;;;;28.46;53.24;101278.06;4943221;28;20036;-95
2023/09/04 08:18:20;;;;;;;14.48;11.23;;;;;;;28.83;52.68;101282.38;4948744;28;20462;-96
2023/09/04 08:20:46;;;;;;;14.50;11.27;;;;;;;28.90;51.67;101266.53;4949176;28;20043;-96
2023/09/04 08:23:12;;;;;;;16.13;12.38;;;;;;;29.38;49.91;101275.56;4949584;28;20398;-96
2023/09/04 08:25:37;;;;;;;14.70;11.07;;;;;;;29.74;49.10;101277.31;4950122;28;20031;-94
2023/09/04 08:28:03;;;;;;;15.77;11.50;;;;;;;29.25;49.29;101269.34;4950800;28;20102;-96
2023/09/04 08:30:29;;;;;;;16.05;11.00;;;;;;;30.23;47.68;101281.69;4952076;29;20031;-96
2023/09/04 08:33:05;;;;;;;15.80;11.25;;;;;;;30.17;47.25;101273.69;4959107;28;20023;-96
2023/09/04 08:35:31;;;;;;;17.00;11.73;;;;;;;30.16;47.24;101272.84;4979311;23;20042;-96
2023/09/04 08:40:32;;;;;;;16.05;11.85;;;;;;;30.90;45.84;101268.69;4917642;29;20260;-96
2023/09/04 08:42:58;;;;;;;17.02;12.98;;;;;;;29.88;47.06;101270.25;4914483;29;20111;-96
2023/09/04 08:45:23;;;;;;;11.63;9.70;;;;;;;30.26;46.98;101261.88;4917519;29;20063;-96
2023/09/04 08:47:50;;;;;;;14.30;10.35;;;;;;;30.40;46.53;101268.06;4901698;29;20048;-96
2023/09/04 08:50:19;;;;;;;16.65;11.90;;;;;;;29.71;47.88;101259.09;4924971;28;20003;-96
2023/09/04 08:52:45;;;;;;;17.45;12.10;;;;;;;29.83;47.71;101257.53;4996000;23;20080;-96
2023/09/04 08:55:11;;;;;;;16.00;11.38;;;;;;;29.90;48.56;101259.38;4937970;29;20120;-95
2023/09/04 08:57:37;;;;;;;14.32;11.00;;;;;;;29.22;49.79;101257.25;4913306;29;20074;-96
2023/09/04 09:00:05;;;;;;;14.68;10.15;;;;;;;29.16;50.34;101255.34;4930521;29;20031;-94
2023/09/04 09:02:31;;;;;;;15.30;12.00;;;;;;;29.55;49.36;101254.00;4905178;29;20036;-91
2023/09/04 09:04:57;;;;;;;15.88;10.98;;;;;;;29.93;47.89;101251.03;4890755;29;20051;-91
2023/09/04 09:07:26;;;;;;;14.65;11.10;;;;;;;29.57;48.64;101252.81;4895890;29;20508;-90
2023/09/04 09:09:54;;;;;;;13.25;9.82;;;;;;;30.06;47.84;101248.44;4915491;29;20020;-91
2023/09/04 09:12:20;;;;;;;11.15;7.75;;;;;;;30.31;48.11;101247.97;4908513;29;20103;-91
2023/09/04 09:14:45;;;;;;;13.07;9.32;;;;;;;30.32;48.37;101241.63;4897744;29;20491;-90
2023/09/04 09:17:14;;;;;;;9.93;8.25;;;;;;;29.97;47.99;101239.81;4891566;29;20063;-91
2023/09/04 09:19:40;;;;;;;13.57;9.60;;;;;;;30.09;47.88;101242.69;4900153;29;20028;-90
2023/09/04 09:22:12;;;;;;;15.77;9.40;;;;;;;30.23;47.10;101236.41;4898066;29;20059;-91
2023/09/04 09:24:59;;;;;;;11.98;9.27;;;;;;;29.75;48.77;101232.91;4906165;29;20438;-91
2023/09/04 09:27:26;;;;;;;12.05;8.60;;;;;;;30.07;48.76;101231.47;4906706;29;20130;-91
2023/09/04 09:29:55;;;;;;;11.38;8.60;;;;;;;30.49;47.31;101224.25;4903349;29;20111;-89
2023/09/04 09:32:20;;;;;;;11.93;8.35;;;;;;;30.58;47.57;101233.72;4890778;29;20032;-90
2023/09/04 09:34:53;;;;;;;12.05;9.35;;;;;;;30.91;46.85;101227.66;4907940;29;20036;-90
2023/09/04 09:37:23;;;;;;;11.13;8.32;;;;;;;30.15;47.65;101225.13;4888129;29;20135;-94
2023/09/04 09:39:48;;;;;;;11.60;8.88;;;;;;;30.12;47.77;101221.03;4899894;29;20111;-93
2023/09/04 09:42:14;;;;;;;10.63;8.18;;;;;;;30.08;50.02;101217.13;4907426;29;20538;-94
2023/09/04 09:44:39;;;;;;;8.68;7.53;;;;;;;30.20;47.90;101214.72;4908693;29;20032;-95
2023/09/04 09:47:12;;;;;;;9.07;7.32;;;;;;;29.97;49.01;101207.00;4911659;29;20036;-93
2023/09/04 09:49:41;;;;;;;10.50;7.45;;;;;;;29.31;50.00;101210.91;4907201;29;20028;-95
2023/09/04 09:52:08;;;;;;;8.23;6.72;;;;;;;29.74;49.98;101205.47;4896619;29;20028;-94
2023/09/04 09:54:47;;;;;;;7.35;6.47;;;;;;;28.85;52.68;101205.97;4900602;29;20067;-95
2023/09/04 09:57:15;;;;;;;11.80;7.47;;;;;;;28.58;52.37;101211.00;4897469;29;20424;-93
2023/09/04 10:00:00;;;;;;;7.43;6.63;;;;;;;28.97;52.98;101200.94;4900632;29;20075;-93
2023/09/04 10:02:27;;;;;;;9.00;6.93;;;;;;;27.78;54.30;101192.41;4906457;29;20036;-92
2023/09/04 10:04:53;;;;;;;11.38;7.95;;;;;;;28.98;52.98;101194.63;4899539;29;20521;-93
2023/09/04 10:07:28;;;;;;;12.50;7.82;;;;;;;29.33;51.89;101187.56;4897208;29;20152;-92
2023/09/04 10:10:05;;;;;;;9.48;7.20;;;;;;;28.92;53.57;101177.63;4902663;29;20259;-91
2023/09/04 10:12:50;;;;;;;9.77;6.65;;;;;;;29.09;53.25;101174.69;4906202;29;20029;-93
2023/09/04 10:15:25;;;;;;;11.95;6.63;;;;;;;28.69;52.89;101179.66;4893380;29;20045;-93
2023/09/04 10:18:03;;;;;;;8.32;5.88;;;;;;;27.71;57.12;101163.94;4893846;29;20029;-91
2023/09/04 10:20:29;;;;;;;7.70;5.72;;;;;;;28.34;55.08;101171.50;4906897;29;20032;-92
2023/09/04 10:22:58;;;;;;;12.27;6.80;;;;;;;27.69;57.45;101168.59;4898533;29;20095;-92
2023/09/04 10:25:41;;;;;;;11.05;6.20;;;;;;;27.17;59.69;101176.56;4896762;29;20075;-92
2023/09/04 10:28:11;;;;;;;9.30;6.15;;;;;;;27.99;57.34;101165.13;4892769;29;20035;-92
2023/09/04 10:30:40;;;;;;;7.43;5.25;;;;;;;28.14;57.31;101160.63;4908256;29;20028;-92
2023/09/04 10:33:06;;;;;;;8.23;5.78;;;;;;;27.69;58.21;101158.00;4893284;29;20391;-94
2023/09/04 10:35:32;;;;;;;6.35;4.65;;;;;;;28.23;56.85;101156.03;4892144;29;20040;-92
2023/09/04 10:37:58;;;;;;;7.70;4.13;;;;;;;28.23;55.30;101142.75;4891696;29;20387;-92
2023/09/04 10:40:23;;;;;;;8.93;3.67;;;;;;;28.30;56.39;101139.16;4905126;29;20024;-92
2023/09/04 10:42:49;;;;;;;4.45;2.92;;;;;;;28.37;56.17;101136.59;4892544;29;20025;-92
2023/09/04 10:45:18;;;;;;;4.03;2.88;;;;;;;28.76;54.81;101130.06;4892946;29;20052;-92
2023/09/04 10:47:49;;;;;;;2.88;2.28;;;;;;;28.84;54.17;101124.59;4901472;29;20123;-93
2023/09/04 10:50:35;;;;;;;2.90;2.55;;;;;;;28.54;54.31;101124.75;4904712;29;20044;-91
2023/09/04 10:53:02;;;;;;;6.60;3.03;;;;;;;28.55;55.16;101129.03;4897389;29;20036;-91
2023/09/04 10:55:28;;;;;;;4.40;2.42;;;;;;;28.59;54.80;101116.22;4901128;29;20039;-91
2023/09/04 10:58:05;;;;;;;6.95;2.75;;;;;;;28.53;54.48;101117.81;4899695;29;20060;-94
2023/09/04 11:00:38;;;;;;;5.82;2.60;;;;;;;28.98;54.12;101113.06;4918995;29;20389;-93
2023/09/04 11:03:14;;;;;;;3.72;2.55;;;;;;;28.81;53.63;101119.66;4895334;29;20103;-93
2023/09/04 11:06:01;;;;;;;3.33;2.00;;;;;;;28.45;54.07;101115.25;4897273;29;20039;-93
2023/09/04 11:08:28;;;;;;;8.18;2.03;;;;;;;28.25;54.09;101124.81;4894754;29;20032;-96
2023/09/04 11:11:08;;;;;;;4.70;2.42;;;;;;;28.84;53.72;101113.97;4911002;29;20564;-96